Time;durP1;ratioP1;P1;durP2;ratioP2;P2;SDS_P1;SDS_P2;PMS_P1;PMS_P2;Temp;Humidity;BMP_temperature;BMP_pressure;BME280_temperature;BME280_humidity;BME280_pressure;Samples;Min_cycle;Max_cycle;Signal;HPM_P1;HPM_P2
2021/10/18 00:01:55;;;;;;;9.20;5.90;;;5.70;99.90;;;;;;4176563;28;20040;-60
2021/10/18 00:03:56;;;;;;;9.67;6.03;;;5.70;99.90;;;;;;4174773;28;20485;-62
2021/10/18 00:05:57;;;;;;;14.30;7.73;;;5.70;99.90;;;;;;4176026;28;20440;-59
2021/10/18 00:07:58;;;;;;;14.90;8.33;;;5.70;99.90;;;;;;4175132;28;20033;-60
2021/10/18 00:10:00;;;;;;;13.23;6.50;;;5.70;99.90;;;;;;4177185;28;20266;-61
2021/10/18 00:12:01;;;;;;;12.37;7.37;;;5.60;99.90;;;;;;4175449;28;20071;-61
2021/10/18 00:14:02;;;;;;;16.50;7.77;;;5.60;99.90;;;;;;4176106;28;20079;-60
2021/10/18 00:16:03;;;;;;;10.53;6.17;;;5.60;99.90;;;;;;4174800;28;20029;-60
2021/10/18 00:18:05;;;;;;;8.63;5.17;;;5.50;99.90;;;;;;4174819;28;20049;-62
2021/10/18 00:20:09;;;;;;;9.37;5.07;;;5.50;99.90;;;;;;4174989;28;20311;-62
2021/10/18 00:22:10;;;;;;;9.57;5.07;;;5.50;99.90;;;;;;4175772;28;20254;-60
2021/10/18 00:24:11;;;;;;;9.43;5.60;;;5.50;99.90;;;;;;4175643;28;20305;-59
2021/10/18 00:26:13;;;;;;;9.53;5.17;;;5.50;99.90;;;;;;4175081;28;20328;-61
2021/10/18 00:28:14;;;;;;;9.83;4.63;;;5.50;99.90;;;;;;4175738;28;20270;-61
2021/10/18 00:30:15;;;;;;;12.37;5.50;;;5.50;99.90;;;;;;4173952;28;20807;-58
2021/10/18 00:32:16;;;;;;;12.07;5.90;;;5.50;99.90;;;;;;4176538;28;20676;-61
2021/10/18 00:34:17;;;;;;;9.23;5.37;;;5.50;99.90;;;;;;4174871;28;20351;-60
2021/10/18 00:36:19;;;;;;;10.70;5.60;;;5.50;99.90;;;;;;4176621;28;20709;-59
2021/10/18 00:38:20;;;;;;;9.27;4.97;;;5.40;99.90;;;;;;4175287;28;20107;-59
2021/10/18 00:40:21;;;;;;;9.53;5.90;;;5.40;99.90;;;;;;4175526;28;20270;-60
2021/10/18 00:42:22;;;;;;;11.23;5.60;;;5.30;99.90;;;;;;4157035;28;20279;-60
2021/10/18 00:44:24;;;;;;;11.10;6.00;;;5.30;99.90;;;;;;4175629;28;20289;-60
2021/10/18 00:46:25;;;;;;;8.07;4.57;;;5.30;99.90;;;;;;4174380;28;20343;-60
2021/10/18 00:48:26;;;;;;;9.60;4.67;;;5.30;99.90;;;;;;4157222;28;20337;-60
2021/10/18 00:50:28;;;;;;;8.33;4.63;;;5.20;99.90;;;;;;4175067;28;20367;-60
2021/10/18 00:52:29;;;;;;;8.63;4.53;;;5.20;99.90;;;;;;4174881;28;20290;-58
2021/10/18 00:54:30;;;;;;;7.47;4.20;;;5.20;99.90;;;;;;4175692;28;20258;-61
2021/10/18 00:56:32;;;;;;;9.97;4.60;;;5.20;99.90;;;;;;4174364;28;20262;-60
2021/10/18 00:58:33;;;;;;;12.37;5.07;;;5.20;99.90;;;;;;4175342;28;20266;-60
2021/10/18 01:00:34;;;;;;;10.93;5.50;;;5.20;99.90;;;;;;4174766;28;21172;-60
2021/10/18 01:02:37;;;;;;;10.10;5.50;;;5.20;99.90;;;;;;4175938;28;20284;-59
2021/10/18 01:04:38;;;;;;;10.70;5.50;;;5.10;99.90;;;;;;4173800;28;20306;-59
2021/10/18 01:06:39;;;;;;;12.13;6.70;;;5.10;99.90;;;;;;4175691;28;20912;-60
2021/10/18 01:08:41;;;;;;;10.90;5.93;;;5.00;99.90;;;;;;4174296;28;20274;-59
2021/10/18 01:10:42;;;;;;;12.17;6.97;;;5.00;99.90;;;;;;4175271;28;20316;-58
2021/10/18 01:12:44;;;;;;;13.23;7.43;;;4.90;99.90;;;;;;4174442;28;20298;-60
2021/10/18 01:14:45;;;;;;;14.43;7.20;;;4.90;99.90;;;;;;4175367;28;20328;-55
2021/10/18 01:16:46;;;;;;;12.03;6.80;;;4.80;99.90;;;;;;4174493;28;20246;-59
2021/10/18 01:18:47;;;;;;;14.27;7.00;;;4.70;99.90;;;;;;4174732;28;20270;-56
2021/10/18 01:20:48;;;;;;;11.70;6.10;;;4.70;99.90;;;;;;4174359;28;20286;-58
2021/10/18 01:22:50;;;;;;;11.50;6.37;;;4.70;99.90;;;;;;4174141;28;20278;-58
2021/10/18 01:24:51;;;;;;;12.13;7.47;;;4.60;99.90;;;;;;4175125;28;20355;-60
2021/10/18 01:26:52;;;;;;;12.47;6.67;;;4.60;99.90;;;;;;4174202;28;20278;-58
2021/10/18 01:28:53;;;;;;;14.70;6.07;;;4.60;99.90;;;;;;4175281;28;20809;-60
2021/10/18 01:30:54;;;;;;;12.17;6.63;;;4.60;99.90;;;;;;4174263;28;20266;-59
2021/10/18 01:32:55;;;;;;;10.00;5.80;;;4.60;99.90;;;;;;4175342;28;20324;-60
2021/10/18 01:34:56;;;;;;;9.57;5.40;;;4.60;99.90;;;;;;4173917;28;20255;-60
2021/10/18 01:36:59;;;;;;;12.83;6.10;;;4.60;99.90;;;;;;4175050;28;20290;-62
2021/10/18 01:39:00;;;;;;;11.47;5.27;;;4.60;99.90;;;;;;4174022;28;20327;-59
2021/10/18 01:41:02;;;;;;;7.87;5.10;;;4.60;99.90;;;;;;4175477;28;20336;-60
2021/10/18 01:43:03;;;;;;;7.77;5.33;;;4.60;99.90;;;;;;4174440;28;20673;-61
2021/10/18 01:45:06;;;;;;;9.07;4.67;;;4.60;99.90;;;;;;4175326;28;20332;-60
2021/10/18 01:47:08;;;;;;;8.57;5.03;;;4.50;99.90;;;;;;4157168;28;20655;-57
2021/10/18 01:49:09;;;;;;;8.30;4.90;;;4.60;99.90;;;;;;4158161;28;20305;-59
2021/10/18 01:51:10;;;;;;;9.30;5.40;;;4.60;99.90;;;;;;4157279;28;20275;-60
2021/10/18 01:53:12;;;;;;;9.67;5.80;;;4.50;99.90;;;;;;4157591;28;20344;-61
2021/10/18 01:55:13;;;;;;;13.00;6.00;;;4.50;99.90;;;;;;4158109;28;20258;-57
2021/10/18 01:57:14;;;;;;;12.60;6.93;;;4.50;99.90;;;;;;4157287;28;20328;-59
2021/10/18 01:59:17;;;;;;;19.73;5.93;;;4.50;99.90;;;;;;4161479;28;20266;-60
2021/10/18 02:01:18;;;;;;;14.57;6.90;;;4.40;99.90;;;;;;4173510;28;20262;-58
2021/10/18 02:03:19;;;;;;;11.87;6.13;;;4.40;99.90;;;;;;4174345;28;20273;-61
2021/10/18 02:05:20;;;;;;;12.00;7.73;;;4.30;99.90;;;;;;4173466;28;20298;-60
2021/10/18 02:07:22;;;;;;;14.10;7.13;;;4.30;99.90;;;;;;4174381;28;20282;-60
2021/10/18 02:09:23;;;;;;;13.03;7.63;;;4.20;99.90;;;;;;4173629;28;20277;-61
2021/10/18 02:11:24;;;;;;;13.67;7.20;;;4.20;99.90;;;;;;4174844;28;20258;-61
2021/10/18 02:13:26;;;;;;;12.17;6.87;;;4.20;99.90;;;;;;4174218;28;20316;-59
2021/10/18 02:15:27;;;;;;;15.90;7.50;;;4.10;99.90;;;;;;4174223;28;20289;-58
2021/10/18 02:17:28;;;;;;;12.03;7.27;;;4.00;99.90;;;;;;4173309;28;20292;-60
2021/10/18 02:19:29;;;;;;;7.83;5.57;;;4.00;99.90;;;;;;4173883;28;20323;-59
2021/10/18 02:21:30;;;;;;;11.63;6.57;;;4.00;99.90;;;;;;4173199;28;20744;-60
2021/10/18 02:23:32;;;;;;;13.33;6.87;;;4.00;99.90;;;;;;4172936;28;20304;-59
2021/10/18 02:25:33;;;;;;;12.70;5.50;;;4.00;99.90;;;;;;4172711;28;20356;-59
2021/10/18 02:27:35;;;;;;;11.13;6.17;;;4.00;99.90;;;;;;4172721;28;20278;-60
2021/10/18 02:29:36;;;;;;;10.70;6.40;;;3.90;99.90;;;;;;4174440;28;20746;-60
2021/10/18 02:31:37;;;;;;;11.20;5.23;;;4.00;99.90;;;;;;4173174;28;20270;-61
2021/10/18 02:33:38;;;;;;;10.03;5.07;;;3.90;99.90;;;;;;4173835;28;20820;-59
2021/10/18 02:35:40;;;;;;;8.80;4.93;;;4.00;99.90;;;;;;4173160;28;20266;-58
2021/10/18 02:37:42;;;;;;;12.13;4.13;;;4.00;99.90;;;;;;4174647;28;20746;-58
2021/10/18 02:39:43;;;;;;;8.67;4.20;;;4.10;99.90;;;;;;4172894;28;20312;-61
2021/10/18 02:41:44;;;;;;;6.47;3.97;;;4.10;99.90;;;;;;4173949;28;20270;-61
2021/10/18 02:43:45;;;;;;;8.00;3.90;;;4.20;99.90;;;;;;4154431;28;20267;-61
2021/10/18 02:45:48;;;;;;;8.37;4.00;;;4.20;99.90;;;;;;4174159;28;20305;-61
2021/10/18 02:47:49;;;;;;;5.83;3.17;;;4.20;99.90;;;;;;4173056;28;20748;-61
2021/10/18 02:49:50;;;;;;;7.40;4.00;;;4.20;99.90;;;;;;4173065;28;20285;-60
2021/10/18 02:51:51;;;;;;;9.57;3.90;;;4.20;99.90;;;;;;4171772;28;20246;-62
2021/10/18 02:53:53;;;;;;;6.23;3.87;;;4.30;99.90;;;;;;4173235;28;20270;-61
2021/10/18 02:55:54;;;;;;;6.10;3.80;;;4.30;99.90;;;;;;4173636;28;20288;-61
2021/10/18 02:57:55;;;;;;;8.93;4.20;;;4.30;99.90;;;;;;4172852;28;20328;-61
2021/10/18 02:59:56;;;;;;;7.23;4.43;;;4.30;99.90;;;;;;4173956;28;20274;-59
2021/10/18 03:01:58;;;;;;;7.10;3.93;;;4.30;99.90;;;;;;4172314;28;20269;-61
2021/10/18 03:03:59;;;;;;;6.23;4.10;;;4.30;99.90;;;;;;4174125;28;20328;-61
2021/10/18 03:06:00;;;;;;;7.10;4.30;;;4.30;99.90;;;;;;4172704;28;20827;-61
2021/10/18 03:08:02;;;;;;;7.83;4.20;;;4.30;99.90;;;;;;4174250;28;20262;-61
2021/10/18 03:10:04;;;;;;;8.67;4.60;;;4.30;99.90;;;;;;4172551;28;20293;-61
2021/10/18 03:12:05;;;;;;;8.27;4.20;;;4.20;99.90;;;;;;4173991;28;20262;-60
2021/10/18 03:14:06;;;;;;;6.77;3.87;;;4.30;99.90;;;;;;4172603;28;20327;-59
2021/10/18 03:16:07;;;;;;;6.90;3.73;;;4.20;99.90;;;;;;4173224;28;20347;-59
2021/10/18 03:18:09;;;;;;;11.50;4.80;;;4.20;99.90;;;;;;4172512;28;20258;-58
2021/10/18 03:20:11;;;;;;;6.40;3.93;;;4.20;99.90;;;;;;4172822;28;20266;-61
2021/10/18 03:22:12;;;;;;;7.77;4.57;;;4.20;99.90;;;;;;4172106;28;20273;-61
2021/10/18 03:24:13;;;;;;;7.60;4.07;;;4.20;99.90;;;;;;4173486;28;20815;-59
2021/10/18 03:26:15;;;;;;;8.30;3.97;;;4.20;99.90;;;;;;4172915;28;20327;-59
2021/10/18 03:28:16;;;;;;;9.43;4.57;;;4.20;99.90;;;;;;4173469;28;20941;-59
2021/10/18 03:30:17;;;;;;;7.07;4.53;;;4.20;99.90;;;;;;4173218;28;20270;-58
2021/10/18 03:32:18;;;;;;;9.73;4.67;;;4.20;99.90;;;;;;4172690;28;20288;-62
2021/10/18 03:34:19;;;;;;;9.37;5.00;;;4.10;99.90;;;;;;4173234;28;20278;-60
2021/10/18 03:36:20;;;;;;;9.40;5.47;;;4.10;99.90;;;;;;4171528;28;20282;-61
2021/10/18 03:38:21;;;;;;;11.73;5.77;;;4.10;99.90;;;;;;4174043;28;20294;-59
2021/10/18 03:40:23;;;;;;;8.23;5.37;;;4.10;99.90;;;;;;4172128;28;20270;-64
2021/10/18 03:42:24;;;;;;;12.10;5.67;;;4.10;99.90;;;;;;4173873;28;20274;-61
2021/10/18 03:44:26;;;;;;;10.87;5.77;;;4.00;99.90;;;;;;4153697;28;20278;-60
2021/10/18 03:46:29;;;;;;;15.03;7.10;;;4.00;99.90;;;;;;4173426;28;20277;-59
2021/10/18 03:48:30;;;;;;;8.40;4.83;;;3.90;99.90;;;;;;4154337;28;20856;-51
2021/10/18 03:50:32;;;;;;;10.47;5.70;;;3.90;99.90;;;;;;4172926;28;20274;-62
2021/10/18 03:52:33;;;;;;;11.07;5.40;;;3.90;99.90;;;;;;4172465;28;20730;-61
2021/10/18 03:54:34;;;;;;;10.13;5.40;;;4.00;99.90;;;;;;4172954;28;20277;-58
2021/10/18 03:56:35;;;;;;;9.73;5.53;;;3.90;99.90;;;;;;4171948;28;20672;-60
2021/10/18 03:58:37;;;;;;;13.40;6.37;;;3.90;99.90;;;;;;4172689;28;20348;-59
2021/10/18 04:00:38;;;;;;;8.73;5.23;;;3.90;99.90;;;;;;4173733;28;20339;-59
2021/10/18 04:02:39;;;;;;;8.07;4.30;;;3.90;99.90;;;;;;4171782;28;20281;-60
2021/10/18 04:04:40;;;;;;;10.37;4.80;;;3.80;99.90;;;;;;4175655;28;20816;-59
2021/10/18 04:06:41;;;;;;;10.17;4.57;;;3.80;99.90;;;;;;4174401;28;20485;-59
2021/10/18 04:08:42;;;;;;;10.70;4.30;;;3.90;99.90;;;;;;4176388;28;20270;-61
2021/10/18 04:10:44;;;;;;;9.03;4.63;;;3.90;99.90;;;;;;4173827;28;20308;-60
2021/10/18 04:12:45;;;;;;;11.73;4.20;;;3.90;99.90;;;;;;4175868;28;20308;-61
2021/10/18 04:14:46;;;;;;;7.17;3.70;;;3.90;99.90;;;;;;4174058;28;20267;-62
2021/10/18 04:16:47;;;;;;;12.30;4.97;;;3.90;99.90;;;;;;4175516;28;20270;-58
2021/10/18 04:18:48;;;;;;;12.80;5.10;;;3.90;99.90;;;;;;4174925;28;20784;-56
2021/10/18 04:20:50;;;;;;;15.70;7.93;;;3.90;99.90;;;;;;4175129;28;20331;-60
2021/10/18 04:22:51;;;;;;;14.17;8.27;;;3.80;99.90;;;;;;4174057;28;20282;-61
2021/10/18 04:24:52;;;;;;;19.13;9.37;;;3.80;99.90;;;;;;4174909;28;20956;-61
2021/10/18 04:26:54;;;;;;;24.13;9.93;;;3.70;99.90;;;;;;4173631;28;20335;-59
2021/10/18 04:28:55;;;;;;;17.97;9.30;;;3.60;99.90;;;;;;4175607;28;20669;-61
2021/10/18 04:30:56;;;;;;;23.57;10.33;;;3.50;99.90;;;;;;4175143;28;20367;-61
2021/10/18 04:32:58;;;;;;;23.93;11.53;;;3.50;99.90;;;;;;4173940;28;20274;-61
2021/10/18 04:34:59;;;;;;;20.87;9.30;;;3.50;99.90;;;;;;4175206;28;20335;-59
2021/10/18 04:37:00;;;;;;;21.93;9.77;;;3.40;99.90;;;;;;4157501;28;20415;-62
2021/10/18 04:39:03;;;;;;;16.03;8.30;;;3.40;99.90;;;;;;4174427;28;20274;-60
2021/10/18 04:41:04;;;;;;;16.53;9.53;;;3.40;99.90;;;;;;4171885;28;20285;-62
2021/10/18 04:43:05;;;;;;;20.87;8.33;;;3.40;99.90;;;;;;4174514;28;20270;-60
2021/10/18 04:45:07;;;;;;;14.73;8.27;;;3.40;99.90;;;;;;4171302;28;20293;-61
2021/10/18 04:47:08;;;;;;;15.93;8.90;;;3.50;99.90;;;;;;4168639;28;20285;-59
2021/10/18 04:49:09;;;;;;;16.37;8.60;;;3.60;99.90;;;;;;4172244;28;20278;-58
2021/10/18 04:51:10;;;;;;;18.83;9.60;;;3.50;99.90;;;;;;4173543;28;20290;-63
2021/10/18 04:53:12;;;;;;;23.60;10.73;;;3.50;99.90;;;;;;4172190;28;20718;-59
2021/10/18 04:55:13;;;;;;;21.37;11.30;;;3.50;99.90;;;;;;4172997;28;20396;-58
2021/10/18 04:57:14;;;;;;;23.23;10.27;;;3.50;99.90;;;;;;4174573;28;20296;-61
2021/10/18 04:59:15;;;;;;;23.07;9.97;;;3.60;99.90;;;;;;4174751;28;20277;-60
2021/10/18 05:01:16;;;;;;;21.60;11.10;;;3.60;99.90;;;;;;4174981;28;20738;-60
2021/10/18 05:03:17;;;;;;;16.70;10.17;;;3.80;99.90;;;;;;4174003;28;20266;-57
2021/10/18 05:05:20;;;;;;;17.97;7.63;;;4.00;99.90;;;;;;4174617;28;20298;-60
2021/10/18 05:07:21;;;;;;;19.00;8.50;;;4.20;99.90;;;;;;4173489;28;20278;-61
2021/10/18 05:09:22;;;;;;;12.90;6.73;;;4.40;99.90;;;;;;4174724;28;20331;-60
2021/10/18 05:11:23;;;;;;;17.00;6.43;;;4.70;99.90;;;;;;4173200;28;20289;-60
2021/10/18 05:13:25;;;;;;;13.77;6.70;;;5.00;99.90;;;;;;4175978;28;20262;-60
2021/10/18 05:15:26;;;;;;;10.93;6.23;;;5.40;99.90;;;;;;4173148;28;20756;-61
2021/10/18 05:17:27;;;;;;;27.20;10.23;;;5.70;99.90;;;;;;4174333;28;20335;-60
2021/10/18 05:19:28;;;;;;;27.27;11.77;;;5.90;99.90;;;;;;4155430;28;20271;-59
2021/10/18 05:21:29;;;;;;;27.37;11.20;;;6.00;99.90;;;;;;4173950;28;20059;-58
2021/10/18 05:23:31;;;;;;;24.50;11.67;;;6.10;99.90;;;;;;4174015;28;20280;-59
2021/10/18 05:25:32;;;;;;;24.10;12.10;;;6.10;99.90;;;;;;4174447;28;20282;-59
2021/10/18 05:27:33;;;;;;;28.10;12.47;;;6.30;99.90;;;;;;4174316;28;20025;-61
2021/10/18 05:29:34;;;;;;;23.00;9.43;;;6.50;99.90;;;;;;4174290;28;20055;-57
2021/10/18 05:31:35;;;;;;;15.33;8.07;;;6.80;99.90;;;;;;4174415;28;20085;-60
2021/10/18 05:33:36;;;;;;;14.53;6.90;;;7.10;99.90;;;;;;4173264;28;20511;-60
2021/10/18 05:35:37;;;;;;;13.27;7.33;;;7.20;99.90;;;;;;4174037;28;20045;-61
2021/10/18 05:37:43;;;;;;;18.03;6.40;;;7.20;99.90;;;;;;4173334;28;20070;-60
2021/10/18 05:39:44;;;;;;;9.30;5.93;;;7.30;99.90;;;;;;4173455;28;20033;-61
2021/10/18 05:41:45;;;;;;;12.73;6.13;;;7.50;99.90;;;;;;4172572;28;20041;-62
2021/10/18 05:43:46;;;;;;;9.90;5.60;;;7.60;99.90;;;;;;4174580;28;20444;-60
2021/10/18 05:45:47;;;;;;;18.80;7.33;;;7.90;99.90;;;;;;4172632;28;20057;-61
2021/10/18 05:47:56;;;;;;;20.90;9.63;;;8.10;99.90;;;;;;4174389;28;20099;-61
2021/10/18 05:49:59;;;;;;;21.17;7.70;;;8.10;99.90;;;;;;4173597;28;20032;-61
2021/10/18 05:52:01;;;;;;;21.70;9.40;;;7.90;99.90;;;;;;4174358;28;20024;-61
2021/10/18 05:54:04;;;;;;;27.77;12.80;;;7.90;99.90;;;;;;4173381;28;20384;-61
2021/10/18 05:56:05;;;;;;;22.93;12.83;;;7.90;99.90;;;;;;4174367;28;20037;-61
2021/10/18 05:58:09;;;;;;;29.90;12.03;;;8.20;99.90;;;;;;4172922;28;20033;-61
2021/10/18 06:00:11;;;;;;;20.80;10.97;;;8.10;99.90;;;;;;4173190;28;20064;-62
2021/10/18 06:02:12;;;;;;;30.03;12.83;;;7.90;99.90;;;;;;4173561;28;20386;-61
2021/10/18 06:04:13;;;;;;;26.53;11.77;;;7.80;99.90;;;;;;4172935;28;20036;-60
2021/10/18 06:06:15;;;;;;;25.00;10.63;;;8.00;99.90;;;;;;4173457;28;20051;-60
2021/10/18 06:08:17;;;;;;;24.53;9.60;;;8.10;99.90;;;;;;4172911;28;20029;-61
2021/10/18 06:10:18;;;;;;;27.27;12.03;;;8.40;99.90;;;;;;4174048;28;20682;-62
2021/10/18 06:12:19;;;;;;;24.33;10.73;;;8.90;99.90;;;;;;4172039;28;20037;-61
2021/10/18 06:14:20;;;;;;;20.13;10.13;;;9.20;99.90;;;;;;4156448;28;20205;-59
2021/10/18 06:16:21;;;;;;;21.00;9.60;;;9.80;99.90;;;;;;4172319;28;20044;-61
2021/10/18 06:18:22;;;;;;;22.67;11.60;;;10.30;99.90;;;;;;4173810;28;20439;-61
2021/10/18 06:20:24;;;;;;;26.07;10.80;;;10.80;99.90;;;;;;4172959;28;20639;-61
2021/10/18 06:22:25;;;;;;;18.83;9.87;;;11.10;99.90;;;;;;4174401;28;20036;-60
2021/10/18 06:24:27;;;;;;;17.27;8.67;;;11.50;99.90;;;;;;4172818;28;20033;-60
2021/10/18 06:26:30;;;;;;;26.37;8.40;;;11.90;99.90;;;;;;4173691;28;20037;-61
2021/10/18 06:28:31;;;;;;;22.07;7.83;;;12.30;99.90;;;;;;4172692;28;20033;-61
2021/10/18 06:30:32;;;;;;;17.47;7.80;;;12.70;99.90;;;;;;4173513;28;20435;-61
2021/10/18 06:32:33;;;;;;;7.83;4.90;;;12.50;99.90;;;;;;4173101;28;20036;-60
2021/10/18 06:34:34;;;;;;;14.03;7.47;;;12.40;99.90;;;;;;4172323;28;20127;-61
2021/10/18 06:36:35;;;;;;;10.97;5.93;;;12.50;99.90;;;;;;4173563;28;20033;-59
2021/10/18 06:38:37;;;;;;;12.37;5.33;;;12.80;99.90;;;;;;4172064;28;20041;-60
2021/10/18 06:40:39;;;;;;;20.83;10.53;;;13.10;99.90;;;;;;4172851;28;20057;-60
2021/10/18 06:42:40;;;;;;;37.60;13.20;;;13.20;99.90;;;;;;4171741;28;20083;-61
2021/10/18 06:44:42;;;;;;;23.67;11.47;;;12.90;99.90;;;;;;4174242;28;20439;-60
2021/10/18 06:46:43;;;;;;;10.40;6.13;;;12.80;99.90;;;;;;4171703;28;20052;-61
2021/10/18 06:48:44;;;;;;;27.63;11.40;;;12.90;99.90;;;;;;4173253;28;20037;-59
2021/10/18 06:50:47;;;;;;;26.40;13.60;;;12.90;99.90;;;;;;4172777;28;20033;-61
2021/10/18 06:52:48;;;;;;;35.93;13.23;;;12.60;99.90;;;;;;4174021;28;20031;-61
2021/10/18 06:54:49;;;;;;;28.40;13.40;;;12.50;99.90;;;;;;4172471;28;20029;-61
2021/10/18 06:56:52;;;;;;;25.47;14.00;;;12.70;99.90;;;;;;4173772;28;20099;-62
2021/10/18 06:58:53;;;;;;;37.23;15.67;;;12.50;99.90;;;;;;4171970;28;20045;-61
2021/10/18 07:00:54;;;;;;;29.33;14.53;;;12.10;99.90;;;;;;4173405;28;20445;-61
2021/10/18 07:02:55;;;;;;;33.63;13.90;;;11.90;99.90;;;;;;4172513;28;20021;-61
2021/10/18 07:04:57;;;;;;;32.57;13.47;;;11.60;99.90;;;;;;4173005;28;20091;-61
2021/10/18 07:06:58;;;;;;;28.93;13.70;;;11.70;99.90;;;;;;4172593;28;20519;-61
2021/10/18 07:08:59;;;;;;;18.83;7.73;;;11.80;99.90;;;;;;4172933;28;20542;-60
2021/10/18 07:11:00;;;;;;;24.57;12.40;;;12.10;99.90;;;;;;4173207;28;20301;-62
2021/10/18 07:13:03;;;;;;;30.00;12.83;;;12.30;99.90;;;;;;4172954;28;20051;-61
2021/10/18 07:15:05;;;;;;;37.83;14.93;;;12.60;99.90;;;;;;4173255;28;20099;-62
2021/10/18 07:17:07;;;;;;;26.13;13.60;;;12.30;99.90;;;;;;4172601;28;20071;-62
2021/10/18 07:19:08;;;;;;;29.97;14.20;;;12.20;99.90;;;;;;4173575;28;20025;-61
2021/10/18 07:21:09;;;;;;;32.37;12.93;;;12.00;99.90;;;;;;4171946;28;20045;-62
2021/10/18 07:23:10;;;;;;;29.73;13.30;;;11.90;99.90;;;;;;4172784;28;20091;-61
2021/10/18 07:25:13;;;;;;;27.17;12.80;;;11.40;99.90;;;;;;4154045;28;20093;-62
2021/10/18 07:27:14;;;;;;;22.57;12.30;;;10.90;99.90;;;;;;4173681;28;20041;-61
2021/10/18 07:29:21;;;;;;;26.47;12.47;;;10.90;99.90;;;;;;4172231;28;20083;-61
2021/10/18 07:31:22;;;;;;;27.17;13.77;;;10.80;99.90;;;;;;4173566;28;20087;-61
2021/10/18 07:33:23;;;;;;;24.10;11.73;;;10.70;99.90;;;;;;4172129;28;20051;-61
2021/10/18 07:35:29;;;;;;;25.03;11.60;;;10.30;99.90;;;;;;4172446;28;20041;-62
2021/10/18 07:37:31;;;;;;;28.73;12.77;;;9.90;99.90;;;;;;4172494;28;20157;-59
2021/10/18 07:39:32;;;;;;;24.50;12.23;;;9.60;99.90;;;;;;4175828;28;20107;-60
2021/10/18 07:41:33;;;;;;;22.73;11.30;;;9.60;99.90;;;;;;4175918;28;20055;-60
2021/10/18 07:43:34;;;;;;;24.77;11.03;;;9.60;99.90;;;;;;4175796;28;20040;-60
2021/10/18 07:45:35;;;;;;;18.93;11.00;;;9.50;99.90;;;;;;4175453;28;20045;-60
2021/10/18 07:47:37;;;;;;;25.20;11.80;;;9.20;99.90;;;;;;4174414;28;20103;-60
2021/10/18 07:49:40;;;;;;;17.63;10.73;;;9.00;99.90;;;;;;4175938;28;20095;-59
2021/10/18 07:51:41;;;;;;;22.50;12.30;;;8.70;99.90;;;;;;4175299;28;20083;-60
2021/10/18 07:53:42;;;;;;;23.83;11.90;;;8.60;99.90;;;;;;4176633;28;20025;-61
2021/10/18 07:55:44;;;;;;;20.97;11.63;;;8.60;99.90;;;;;;4174409;28;20048;-57
2021/10/18 07:57:48;;;;;;;24.77;11.33;;;8.50;99.90;;;;;;4175537;28;20064;-59
2021/10/18 07:59:49;;;;;;;21.03;12.60;;;8.40;99.90;;;;;;4175240;28;20029;-61
2021/10/18 08:01:50;;;;;;;23.53;12.00;;;8.50;99.90;;;;;;4176203;28;20772;-61
2021/10/18 08:03:52;;;;;;;19.13;12.23;;;8.70;99.90;;;;;;4175005;28;20036;-60
2021/10/18 08:05:53;;;;;;;21.63;12.07;;;8.70;99.90;;;;;;4175785;28;20041;-60
2021/10/18 08:07:55;;;;;;;21.00;12.10;;;8.70;99.90;;;;;;4174556;28;20110;-60
2021/10/18 08:09:57;;;;;;;22.80;11.83;;;8.80;99.90;;;;;;4175359;28;20048;-60
2021/10/18 08:11:58;;;;;;;22.90;13.33;;;8.80;99.90;;;;;;4175204;28;20033;-60
2021/10/18 08:13:59;;;;;;;24.87;12.97;;;8.80;99.90;;;;;;4175561;28;20029;-61
2021/10/18 08:16:00;;;;;;;26.20;13.73;;;8.70;99.90;;;;;;4175298;28;20078;-61
2021/10/18 08:18:02;;;;;;;18.10;11.13;;;8.90;99.90;;;;;;4173973;28;20044;-61
2021/10/18 08:20:03;;;;;;;23.97;12.27;;;9.20;99.90;;;;;;4175667;28;20481;-61
2021/10/18 08:22:05;;;;;;;21.90;11.40;;;9.40;99.90;;;;;;4156297;28;20065;-59
2021/10/18 08:24:06;;;;;;;20.73;11.03;;;9.70;99.90;;;;;;4175696;28;20021;-60
2021/10/18 08:26:09;;;;;;;21.20;11.70;;;10.00;99.90;;;;;;4173701;28;20056;-61
2021/10/18 08:28:10;;;;;;;23.60;11.80;;;10.00;99.90;;;;;;4175998;28;20087;-60
2021/10/18 08:30:12;;;;;;;26.97;11.77;;;10.00;99.90;;;;;;4174253;28;20087;-60
2021/10/18 08:32:13;;;;;;;20.57;11.57;;;9.80;99.90;;;;;;4175521;28;20099;-62
2021/10/18 08:34:14;;;;;;;20.10;11.60;;;9.70;99.90;;;;;;4173738;28;20044;-60
2021/10/18 08:36:16;;;;;;;20.03;10.40;;;9.80;99.90;;;;;;4175318;28;20033;-60
2021/10/18 08:43:03;;;;;;;16.97;9.33;;;10.40;99.90;;;;;;4173489;28;20090;-60
2021/10/18 08:45:05;;;;;;;18.45;9.73;;;10.80;99.90;;;;;;4175186;28;20049;-61
2021/10/18 08:47:06;;;;;;;20.53;9.53;;;11.10;99.90;;;;;;4174033;28;20494;-61
2021/10/18 08:49:08;;;;;;;27.00;11.10;;;11.20;99.90;;;;;;4174782;28;20611;-61
2021/10/18 08:51:09;;;;;;;18.83;9.83;;;11.20;99.90;;;;;;4172567;28;20082;-64
2021/10/18 08:53:10;;;;;;;19.40;10.10;;;11.30;99.90;;;;;;4174952;28;20029;-60
2021/10/18 08:55:11;;;;;;;24.07;10.00;;;11.60;99.90;;;;;;4174806;28;20029;-61
2021/10/18 08:57:13;;;;;;;22.13;10.07;;;12.00;99.90;;;;;;4174168;28;20025;-62
2021/10/18 08:59:16;;;;;;;17.50;9.43;;;12.10;99.90;;;;;;4174843;28;20025;-62
2021/10/18 09:01:18;;;;;;;21.70;9.83;;;12.10;99.90;;;;;;4173844;28;20033;-60
2021/10/18 09:03:23;;;;;;;17.13;8.93;;;12.10;99.90;;;;;;4175441;28;20037;-60
2021/10/18 09:05:24;;;;;;;16.40;9.00;;;12.20;99.90;;;;;;4173701;28;20025;-60
2021/10/18 09:07:25;;;;;;;16.13;7.90;;;12.30;99.90;;;;;;4174444;28;20102;-61
2021/10/18 09:09:28;;;;;;;14.93;8.93;;;12.70;99.90;;;;;;4173697;28;20075;-60
2021/10/18 09:11:30;;;;;;;21.23;9.73;;;13.10;99.90;;;;;;4175463;28;20075;-60
2021/10/18 09:13:31;;;;;;;15.70;8.93;;;13.20;99.90;;;;;;4155067;28;20034;-60
2021/10/18 09:15:32;;;;;;;17.23;8.17;;;13.00;99.90;;;;;;4175076;28;20079;-61
2021/10/18 09:17:34;;;;;;;19.63;8.20;;;12.90;99.90;;;;;;4174009;28;20033;-60
2021/10/18 09:19:37;;;;;;;15.27;8.13;;;12.80;99.90;;;;;;4173791;28;20045;-60
2021/10/18 09:21:39;;;;;;;14.20;7.03;;;12.80;99.90;;;;;;4173511;28;20056;-61
2021/10/18 09:23:41;;;;;;;11.80;7.70;;;12.50;99.90;;;;;;4174630;28;20032;-60
2021/10/18 09:25:42;;;;;;;18.53;7.90;;;12.40;99.90;;;;;;4173084;28;20037;-61
2021/10/18 09:27:43;;;;;;;20.00;7.63;;;12.30;99.90;;;;;;4172838;28;20041;-61
2021/10/18 09:29:47;;;;;;;13.83;7.10;;;12.40;99.90;;;;;;4174263;28;20102;-60
2021/10/18 09:32:03;;;;;;;15.20;7.57;;;12.40;99.90;;;;;;4156278;28;20474;-62
2021/10/18 09:34:11;;;;;;;18.17;7.57;;;12.30;99.90;;;;;;4173776;28;20033;-62
2021/10/18 09:36:17;;;;;;;11.77;7.53;;;12.30;99.90;;;;;;4173009;28;20098;-63
2021/10/18 09:38:21;;;;;;;19.77;8.50;;;12.40;99.90;;;;;;4155968;28;20092;-61
2021/10/18 09:40:34;;;;;;;14.67;8.13;;;12.40;99.90;;;;;;4173292;28;20508;-62
2021/10/18 09:42:35;;;;;;;13.53;7.67;;;12.60;99.90;;;;;;4174177;28;20029;-62
2021/10/18 10:52:58;;;;;;;8.17;5.00;;;13.00;97.60;;;;;;4172584;28;20449;-61
2021/10/18 10:55:27;;;;;;;12.00;5.87;;;12.90;97.50;;;;;;4173144;28;20040;-62
2021/10/18 10:57:31;;;;;;;7.90;4.47;;;12.90;97.20;;;;;;4171710;28;20049;-60
2021/10/18 10:59:33;;;;;;;12.30;5.10;;;12.90;97.40;;;;;;4173700;28;20107;-61
2021/10/18 11:01:52;;;;;;;10.70;5.70;;;12.90;97.40;;;;;;4172029;28;20094;-60
2021/10/18 11:03:53;;;;;;;12.10;5.63;;;13.00;96.80;;;;;;4173068;28;20075;-58
2021/10/18 11:06:04;;;;;;;7.93;5.30;;;13.00;97.10;;;;;;4171289;28;20037;-59
2021/10/18 11:08:25;;;;;;;12.30;5.90;;;12.90;97.10;;;;;;4173308;28;20194;-63
2021/10/18 11:10:27;;;;;;;11.10;5.80;;;12.80;97.30;;;;;;4170870;28;20041;-61
2021/10/18 11:12:39;;;;;;;13.33;6.60;;;12.80;97.20;;;;;;4172441;28;20095;-61
2021/10/18 11:14:40;;;;;;;9.50;4.77;;;12.70;97.00;;;;;;4172385;28;21737;-61
2021/10/18 11:16:42;;;;;;;10.43;5.20;;;12.80;97.30;;;;;;4172706;28;20047;-62
2021/10/18 11:18:48;;;;;;;11.90;5.67;;;12.80;97.10;;;;;;4170175;28;20048;-59
2021/10/18 11:20:49;;;;;;;10.27;5.77;;;12.80;96.90;;;;;;4172906;28;20060;-61
2021/10/18 11:22:53;;;;;;;9.87;5.30;;;12.80;97.00;;;;;;4171183;28;20044;-60
2021/10/18 11:24:55;;;;;;;8.60;5.17;;;12.80;97.00;;;;;;4172860;28;20539;-60
2021/10/18 11:26:56;;;;;;;9.37;5.10;;;12.80;97.00;;;;;;4170993;28;20050;-61
2021/10/18 11:28:59;;;;;;;8.63;4.87;;;12.80;96.90;;;;;;4171721;28;20045;-59
2021/10/18 11:31:00;;;;;;;10.87;5.07;;;12.80;96.80;;;;;;4172488;28;20021;-62
2021/10/18 11:33:08;;;;;;;13.00;5.73;;;12.80;96.80;;;;;;4172596;28;20025;-60
2021/10/18 11:35:14;;;;;;;8.13;5.80;;;12.80;96.40;;;;;;4172634;28;20035;-61
2021/10/18 11:37:15;;;;;;;10.43;5.30;;;12.80;96.60;;;;;;4172436;28;20142;-59
2021/10/18 11:39:25;;;;;;;9.30;5.03;;;12.80;96.50;;;;;;4172770;28;20037;-60
2021/10/18 11:41:26;;;;;;;11.73;5.22;;;12.80;96.30;;;;;;4171723;28;20436;-61
2021/10/18 11:43:30;;;;;;;12.43;6.03;;;12.90;96.60;;;;;;4172131;28;20037;-61
2021/10/18 11:45:43;;;;;;;10.10;5.17;;;12.90;96.50;;;;;;4172321;28;20092;-60